createdAt,value
2023-02-01T00:07:37.867Z,185.80
2023-02-01T00:17:43.031Z,182.87
2023-02-01T00:27:51.904Z,184.23
2023-02-01T00:37:59.658Z,182.77
2023-02-01T00:48:03.405Z,185.83
2023-02-01T00:58:10.457Z,179.83
2023-02-01T01:08:14.924Z,183.20
2023-02-01T01:18:20.176Z,184.00
2023-02-01T01:28:24.389Z,181.77
2023-02-01T01:38:29.618Z,179.70
2023-02-01T01:48:34.105Z,180.80
2023-02-01T01:58:40.927Z,183.47
2023-02-01T02:08:44.963Z,183.30
2023-02-01T02:19:18.306Z,182.17
2023-02-01T02:30:06.848Z,182.00
2023-02-01T02:40:23.306Z,182.07
2023-02-01T02:50:49.642Z,182.20
2023-02-01T03:01:13.394Z,178.57
2023-02-01T03:11:18.417Z,178.50
2023-02-01T03:21:29.566Z,183.70
2023-02-01T03:31:33.890Z,176.73
2023-02-01T03:41:44.410Z,178.90
2023-02-01T03:51:49.240Z,180.37
2023-02-01T04:01:55.128Z,178.03
2023-02-01T04:11:59.316Z,175.87
2023-02-01T04:22:04.495Z,182.33
2023-02-01T04:32:08.776Z,183.63
2023-02-01T04:42:15.026Z,181.73
2023-02-01T04:52:18.741Z,178.97
2023-02-01T05:02:24.049Z,178.87
2023-02-01T05:12:45.195Z,176.10
2023-02-01T05:22:50.510Z,174.83
2023-02-01T05:32:54.950Z,175.67
2023-02-01T05:43:00.204Z,180.33
2023-02-01T05:53:03.976Z,180.50
2023-02-01T06:03:10.367Z,184.27
2023-02-01T06:13:14.073Z,184.17
2023-02-01T06:23:19.376Z,191.33
2023-02-01T06:33:23.364Z,182.83
2023-02-01T06:43:29.737Z,192.27
2023-02-01T06:53:34.068Z,192.20
2023-02-01T07:03:39.880Z,179.97
2023-02-01T07:13:43.762Z,189.17
2023-02-01T07:23:49.063Z,194.27
2023-02-01T07:33:53.712Z,187.70
2023-02-01T07:43:58.922Z,188.37
2023-02-01T07:54:02.640Z,192.47
2023-02-01T08:04:07.720Z,187.97
2023-02-01T08:14:11.542Z,197.03
2023-02-01T08:24:17.106Z,203.00
2023-02-01T08:34:20.637Z,191.30
2023-02-01T08:44:25.806Z,206.30
2023-02-01T08:54:29.457Z,210.07
2023-02-01T09:04:34.801Z,191.20
2023-02-01T09:14:38.748Z,192.70
2023-02-01T09:24:44.101Z,198.40
2023-02-01T09:34:47.663Z,196.50
2023-02-01T09:45:12.073Z,198.33
2023-02-01T09:55:21.260Z,199.90
2023-02-01T10:05:51.443Z,199.90
2023-02-01T10:16:21.077Z,194.40
2023-02-01T10:26:33.081Z,197.00
2023-02-01T10:36:44.511Z,200.93
2023-02-01T10:46:49.550Z,200.30
2023-02-01T10:56:54.576Z,202.87
2023-02-01T11:07:14.634Z,202.60
2023-02-01T11:17:29.403Z,198.90
2023-02-01T11:27:40.333Z,207.50
2023-02-01T11:37:52.516Z,203.23
2023-02-01T11:47:58.980Z,199.23
2023-02-01T11:58:23.451Z,204.50
2023-02-01T12:08:59.954Z,196.97
2023-02-01T12:19:36.209Z,205.50
2023-02-01T12:30:02.915Z,200.77
2023-02-01T12:40:24.487Z,198.63
2023-02-01T12:50:34.965Z,203.10
2023-02-01T13:00:43.101Z,200.43
2023-02-01T13:10:56.223Z,196.30
2023-02-01T13:21:07.984Z,204.50
2023-02-01T13:31:42.794Z,192.87
2023-02-01T13:41:57.924Z,194.33
2023-02-01T13:52:02.967Z,192.00
2023-02-01T14:02:49.167Z,193.83
2023-02-01T14:13:06.776Z,191.17
2023-02-01T14:23:18.158Z,191.23
2023-02-01T14:33:27.716Z,202.27
2023-02-01T14:43:52.662Z,191.77
2023-02-01T14:54:00.362Z,188.80
2023-02-01T15:04:07.742Z,190.80
2023-02-01T15:14:16.805Z,190.23
2023-02-01T15:24:29.111Z,188.07
2023-02-01T15:34:50.828Z,187.20
2023-02-01T15:44:54.615Z,186.40
2023-02-01T15:55:03.022Z,198.27
2023-02-01T16:05:08.674Z,191.13
2023-02-01T16:15:13.777Z,197.27
2023-02-01T16:25:17.674Z,191.67
2023-02-01T16:35:27.708Z,210.23
2023-02-01T16:45:31.422Z,214.93
2023-02-01T16:55:36.589Z,193.60
2023-02-01T17:05:40.484Z,202.37
2023-02-01T17:15:52.405Z,195.20
2023-02-01T17:25:56.423Z,192.40
2023-02-01T17:36:02.171Z,195.80
2023-02-01T17:46:13.414Z,197.47
2023-02-01T17:56:20.703Z,192.60
2023-02-01T18:06:27.730Z,202.97
2023-02-01T18:16:35.190Z,194.07
2023-02-01T18:26:39.076Z,194.80
2023-02-01T18:36:44.430Z,207.57
2023-02-01T18:46:48.515Z,200.10
2023-02-01T18:56:54.145Z,194.17
2023-02-01T19:07:00.345Z,197.00
2023-02-01T19:17:06.428Z,229.10
2023-02-01T19:27:10.874Z,217.57
2023-02-01T19:37:36.440Z,197.77
2023-02-01T19:47:40.578Z,196.20
2023-02-01T19:57:48.271Z,197.23
2023-02-01T20:07:51.299Z,189.43
2023-02-01T20:17:56.688Z,193.67
2023-02-01T20:28:01.643Z,199.93
2023-02-01T20:38:07.774Z,203.13
2023-02-01T20:48:13.455Z,193.37
2023-02-01T20:58:18.747Z,196.03
2023-02-01T21:08:22.591Z,197.60
2023-02-01T21:18:27.745Z,227.67
2023-02-01T21:28:31.576Z,189.87
2023-02-01T21:38:36.843Z,198.00
2023-02-01T21:49:04.486Z,192.73
2023-02-01T21:59:07.624Z,194.80
2023-02-01T22:09:18.529Z,188.97
2023-02-01T22:19:24.184Z,192.43
2023-02-01T22:29:28.062Z,191.23
2023-02-01T22:39:33.349Z,184.80
2023-02-01T22:49:37.075Z,187.17
2023-02-01T22:59:42.307Z,188.37
2023-02-01T23:09:46.145Z,188.20
2023-02-01T23:19:51.436Z,188.57
2023-02-01T23:29:55.308Z,184.87
2023-02-01T23:40:00.449Z,181.70
2023-02-01T23:50:04.492Z,186.13
